Time;durP1;ratioP1;P1;durP2;ratioP2;P2;SDS_P1;SDS_P2;PMS_P1;PMS_P2;Temp;Humidity;BMP_temperature;BMP_pressure;BME280_temperature;BME280_humidity;BME280_pressure;Samples;Min_cycle;Max_cycle;Signal;HPM_P1;HPM_P2
2023/07/19 00:01:55;;;;;;;1.85;1.40;;;;;;;15.63;100.00;101296.28;5019432;28;20175;-47
2023/07/19 00:04:21;;;;;;;3.15;1.23;;;;;;;15.57;100.00;101289.38;5023255;28;20246;-48
2023/07/19 00:06:46;;;;;;;2.90;1.67;;;;;;;15.17;100.00;101290.53;5019768;28;20192;-47
2023/07/19 00:09:12;;;;;;;3.35;1.33;;;;;;;14.88;100.00;101278.50;5018160;28;20212;-48
2023/07/19 00:11:37;;;;;;;2.25;1.40;;;;;;;14.99;100.00;101281.53;5023856;28;20595;-48
2023/07/19 00:14:05;;;;;;;2.10;1.40;;;;;;;15.24;100.00;101279.34;5020303;28;20245;-50
2023/07/19 00:16:32;;;;;;;3.00;1.75;;;;;;;15.22;100.00;101275.84;5025609;28;20211;-49
2023/07/19 00:18:57;;;;;;;2.63;1.67;;;;;;;15.21;100.00;101265.13;5022951;28;20272;-49
2023/07/19 00:21:23;;;;;;;2.35;1.73;;;;;;;15.18;100.00;101262.59;5023412;28;20608;-49
2023/07/19 00:23:49;;;;;;;2.92;1.45;;;;;;;14.90;100.00;101265.81;5017945;28;20197;-48
2023/07/19 00:26:14;;;;;;;1.55;1.30;;;;;;;14.99;100.00;101259.94;5022821;28;20272;-49
2023/07/19 00:28:40;;;;;;;4.65;1.95;;;;;;;15.11;100.00;101258.44;5022848;28;20303;-47
2023/07/19 00:31:05;;;;;;;2.58;1.55;;;;;;;15.17;100.00;101248.19;5019365;28;20183;-49
2023/07/19 00:33:31;;;;;;;4.50;1.63;;;;;;;14.89;100.00;101243.34;5027670;28;20180;-50
2023/07/19 00:35:59;;;;;;;6.13;1.80;;;;;;;14.99;100.00;101257.25;5022246;28;20203;-47
2023/07/19 00:38:24;;;;;;;2.50;1.52;;;;;;;15.05;100.00;101259.63;5024646;28;20192;-48
2023/07/19 00:40:50;;;;;;;2.58;1.63;;;;;;;15.04;100.00;101247.97;5039461;28;20266;-48
2023/07/19 00:43:16;;;;;;;1.98;1.50;;;;;;;15.12;100.00;101261.06;5021368;28;20291;-49
2023/07/19 00:45:47;;;;;;;1.63;1.40;;;;;;;15.13;100.00;101264.63;5023182;28;20302;-48
2023/07/19 00:48:15;;;;;;;2.28;1.50;;;;;;;15.10;100.00;101265.66;5025387;28;20188;-47
2023/07/19 00:50:41;;;;;;;3.00;1.48;;;;;;;15.19;100.00;101267.03;5026423;28;20278;-48
2023/07/19 00:53:08;;;;;;;1.70;1.60;;;;;;;15.23;100.00;101266.78;5036223;28;20219;-47
2023/07/19 00:55:34;;;;;;;1.55;1.45;;;;;;;15.29;100.00;101275.56;5022274;28;20201;-47
2023/07/19 00:57:59;;;;;;;1.90;1.48;;;;;;;15.29;100.00;101272.84;5026483;28;20204;-47
2023/07/19 01:00:25;;;;;;;2.08;1.63;;;;;;;15.09;100.00;101277.44;5020532;28;20607;-48
2023/07/19 01:02:51;;;;;;;3.65;1.58;;;;;;;15.02;100.00;101284.06;5019063;28;20177;-47
2023/07/19 01:05:16;;;;;;;2.80;1.67;;;;;;;15.05;100.00;101281.22;5017141;28;20215;-47
2023/07/19 01:07:42;;;;;;;1.85;1.70;;;;;;;15.08;100.00;101283.75;5021184;28;20183;-48
2023/07/19 01:10:08;;;;;;;2.78;1.70;;;;;;;15.02;100.00;101292.16;5019053;28;20196;-51
2023/07/19 01:12:35;;;;;;;3.75;1.77;;;;;;;15.06;100.00;101288.34;5026145;28;20315;-46
2023/07/19 01:15:05;;;;;;;2.95;1.33;;;;;;;15.06;100.00;101292.88;5022854;28;20172;-49
2023/07/19 01:17:30;;;;;;;4.07;1.70;;;;;;;14.78;100.00;101302.31;5016751;28;20646;-48
2023/07/19 01:19:56;;;;;;;4.78;1.48;;;;;;;14.87;100.00;101306.41;5018089;28;20234;-48
2023/07/19 01:22:22;;;;;;;4.60;1.67;;;;;;;14.91;100.00;101292.72;5020141;28;20530;-49
2023/07/19 01:24:47;;;;;;;3.47;1.70;;;;;;;14.94;100.00;101302.47;5022284;28;20176;-48
2023/07/19 01:27:13;;;;;;;2.13;1.73;;;;;;;15.00;100.00;101291.38;5021244;28;20623;-49
2023/07/19 01:29:38;;;;;;;2.90;1.40;;;;;;;15.09;100.00;101288.22;5019040;28;20212;-49
2023/07/19 01:32:04;;;;;;;3.00;1.92;;;;;;;14.94;100.00;101286.28;5026011;28;20208;-50
2023/07/19 01:34:30;;;;;;;4.68;1.90;;;;;;;15.03;100.00;101289.38;5018202;28;20711;-48
2023/07/19 01:36:55;;;;;;;3.42;1.60;;;;;;;15.08;100.00;101286.47;5019743;28;20210;-49
2023/07/19 01:39:21;;;;;;;1.85;1.63;;;;;;;15.08;100.00;101286.47;5020370;28;20614;-48
2023/07/19 01:41:46;;;;;;;6.15;1.73;;;;;;;15.07;100.00;101286.56;5022644;28;20710;-49
2023/07/19 01:44:12;;;;;;;1.58;1.30;;;;;;;15.06;100.00;101272.16;5034088;28;20176;-51
2023/07/19 01:46:39;;;;;;;4.63;1.70;;;;;;;15.00;100.00;101264.41;5033735;28;20220;-48
2023/07/19 01:49:05;;;;;;;4.30;1.55;;;;;;;14.95;100.00;101264.59;5017942;28;20187;-49
2023/07/19 01:51:37;;;;;;;2.80;1.50;;;;;;;15.01;100.00;101260.75;5064750;27;20591;-48
2023/07/19 01:54:02;;;;;;;3.55;1.92;;;;;;;14.97;100.00;101261.84;5065653;28;20672;-49
2023/07/19 01:56:28;;;;;;;3.53;1.70;;;;;;;14.90;100.00;101266.66;5044393;28;20638;-48
2023/07/19 01:58:54;;;;;;;6.90;1.70;;;;;;;14.68;100.00;101261.44;5040258;28;20205;-48
2023/07/19 02:01:19;;;;;;;4.60;2.00;;;;;;;14.55;100.00;101260.28;5035138;28;20214;-51
2023/07/19 02:03:44;;;;;;;5.47;1.88;;;;;;;14.55;100.00;101265.69;5033219;28;20167;-47
2023/07/19 02:06:12;;;;;;;3.30;1.90;;;;;;;14.40;100.00;101261.84;5032922;28;20639;-47
2023/07/19 02:08:37;;;;;;;5.07;1.90;;;;;;;14.39;100.00;101250.22;5035968;28;20259;-47
2023/07/19 02:11:03;;;;;;;3.85;2.00;;;;;;;14.37;100.00;101256.63;5041113;28;20286;-47
2023/07/19 02:13:28;;;;;;;4.40;2.10;;;;;;;14.51;100.00;101255.97;5038741;28;20508;-48
2023/07/19 02:15:54;;;;;;;3.20;2.08;;;;;;;14.41;100.00;101250.16;5041375;28;20227;-49
2023/07/19 02:18:22;;;;;;;5.18;2.05;;;;;;;14.42;100.00;101243.78;5046915;28;20234;-48
2023/07/19 02:20:50;;;;;;;4.38;2.10;;;;;;;14.27;100.00;101239.13;5040897;28;20163;-48
2023/07/19 02:23:18;;;;;;;1.63;1.52;;;;;;;14.35;100.00;101239.66;5038684;28;20180;-47
2023/07/19 02:25:46;;;;;;;4.35;2.03;;;;;;;14.45;100.00;101235.53;5034630;28;20198;-49
2023/07/19 02:28:12;;;;;;;6.13;2.70;;;;;;;14.26;100.00;101235.56;5041118;28;20556;-48
2023/07/19 02:30:44;;;;;;;3.60;1.80;;;;;;;14.08;100.00;101210.38;5037628;28;20207;-49
2023/07/19 02:33:14;;;;;;;4.72;1.90;;;;;;;13.96;100.00;101203.72;5037766;28;20180;-50
2023/07/19 02:39:29;;;;;;;3.83;2.22;;;;;;;14.17;100.00;101217.13;5028183;28;20258;-48
2023/07/19 02:41:55;;;;;;;2.55;1.90;;;;;;;14.21;100.00;101218.72;5037671;28;20196;-49
2023/07/19 02:44:21;;;;;;;3.78;2.30;;;;;;;14.00;100.00;101207.13;5035224;28;20207;-50
2023/07/19 02:46:46;;;;;;;5.88;2.08;;;;;;;13.98;100.00;101196.44;5037436;28;20191;-50
2023/07/19 02:49:12;;;;;;;3.35;2.00;;;;;;;14.00;100.00;101208.00;5044403;28;20266;-48
2023/07/19 02:51:38;;;;;;;3.97;1.67;;;;;;;14.11;100.00;101198.56;5040485;28;20346;-47
2023/07/19 02:54:03;;;;;;;2.72;2.00;;;;;;;14.19;100.00;101201.75;5042444;28;20273;-47
2023/07/19 02:56:29;;;;;;;4.55;2.10;;;;;;;14.17;100.00;101212.63;5041377;28;20200;-47
2023/07/19 02:58:54;;;;;;;4.90;2.10;;;;;;;14.15;100.00;101213.63;5034172;28;20190;-47
2023/07/19 03:01:20;;;;;;;3.75;1.90;;;;;;;14.00;100.00;101216.09;5031766;28;20179;-46
2023/07/19 03:03:45;;;;;;;2.85;1.98;;;;;;;13.96;100.00;101208.22;5026934;28;20183;-47
2023/07/19 03:06:11;;;;;;;3.63;1.90;;;;;;;14.08;100.00;101213.06;5024903;28;20188;-46
2023/07/19 03:08:37;;;;;;;6.68;1.90;;;;;;;14.13;100.00;101220.91;5024962;28;20184;-46
2023/07/19 03:11:05;;;;;;;2.88;1.65;;;;;;;14.06;100.00;101219.44;5022791;28;20218;-45
2023/07/19 03:13:30;;;;;;;3.88;1.77;;;;;;;14.06;100.00;101219.44;5027230;28;20233;-45
2023/07/19 03:15:57;;;;;;;4.07;2.20;;;;;;;13.97;100.00;101227.03;5026800;28;20242;-45
2023/07/19 03:18:22;;;;;;;3.53;2.22;;;;;;;14.05;100.00;101220.41;5023342;28;20256;-46
2023/07/19 03:20:56;;;;;;;1.67;1.55;;;;;;;14.19;100.00;101217.91;5032261;28;20176;-44
2023/07/19 03:23:21;;;;;;;2.80;1.73;;;;;;;14.28;100.00;101219.28;5020882;28;20188;-45
2023/07/19 03:25:47;;;;;;;2.05;1.65;;;;;;;14.30;100.00;101215.63;5026194;28;20565;-46
2023/07/19 03:28:12;;;;;;;2.58;1.70;;;;;;;14.25;100.00;101220.31;5020299;28;20188;-45
2023/07/19 03:30:38;;;;;;;2.60;1.77;;;;;;;14.19;100.00;101221.50;5024403;28;20736;-44
2023/07/19 03:33:03;;;;;;;3.92;1.95;;;;;;;14.30;100.00;101217.41;5021704;28;20634;-45
2023/07/19 03:35:29;;;;;;;3.38;2.03;;;;;;;14.33;100.00;101223.53;5031514;28;20589;-45
2023/07/19 03:37:54;;;;;;;2.42;1.60;;;;;;;14.39;100.00;101227.78;5015265;28;20542;-46
2023/07/19 03:40:20;;;;;;;4.50;2.15;;;;;;;14.40;100.00;101219.59;5023074;28;20177;-46
2023/07/19 03:42:46;;;;;;;3.20;1.90;;;;;;;14.20;100.00;101222.38;5023073;28;20188;-45
2023/07/19 03:45:11;;;;;;;2.30;1.80;;;;;;;14.15;100.00;101222.59;5019506;28;20236;-45
2023/07/19 03:47:37;;;;;;;3.47;1.80;;;;;;;14.16;100.00;101218.94;5025369;28;20180;-45
2023/07/19 03:50:04;;;;;;;2.40;1.63;;;;;;;14.23;100.00;101216.81;5022600;28;20212;-44
2023/07/19 03:52:31;;;;;;;2.30;1.70;;;;;;;14.32;100.00;101218.22;5026131;28;20270;-45
2023/07/19 03:54:58;;;;;;;3.90;2.05;;;;;;;14.22;100.00;101217.78;5022192;28;20183;-46
2023/07/19 03:57:27;;;;;;;2.80;2.13;;;;;;;14.13;100.00;101212.84;5026979;28;20185;-45
2023/07/19 03:59:53;;;;;;;2.80;1.90;;;;;;;14.13;100.00;101213.69;5022523;28;20183;-45
2023/07/19 04:02:19;;;;;;;2.80;1.75;;;;;;;14.20;100.00;101211.59;5023356;28;20242;-44
2023/07/19 04:04:45;;;;;;;2.83;2.25;;;;;;;14.14;100.00;101206.47;5022581;28;20183;-45
2023/07/19 04:07:10;;;;;;;3.92;2.15;;;;;;;14.09;100.00;101214.78;5025898;28;20183;-44
2023/07/19 04:09:35;;;;;;;3.65;2.10;;;;;;;13.99;100.00;101217.06;5021672;28;20200;-46
2023/07/19 04:12:01;;;;;;;3.15;1.80;;;;;;;14.06;100.00;101208.66;5023365;28;20216;-44
2023/07/19 04:14:27;;;;;;;3.58;2.20;;;;;;;14.13;100.00;101221.78;5020904;28;20192;-46
2023/07/19 04:16:52;;;;;;;5.88;2.17;;;;;;;14.22;100.00;101215.09;5019611;28;20199;-45
2023/07/19 04:19:18;;;;;;;5.45;1.90;;;;;;;14.25;100.00;101205.97;5020290;28;20208;-45
2023/07/19 04:21:43;;;;;;;4.53;1.90;;;;;;;14.22;100.00;101202.47;5024934;28;20222;-45
2023/07/19 04:24:10;;;;;;;5.65;2.30;;;;;;;14.19;100.00;101210.72;5024633;28;20203;-44
2023/07/19 04:26:36;;;;;;;5.05;2.13;;;;;;;14.21;100.00;101213.31;5026195;28;20234;-45
2023/07/19 04:29:01;;;;;;;4.55;2.03;;;;;;;14.28;100.00;101216.59;5027350;28;20260;-46
2023/07/19 04:31:27;;;;;;;3.35;1.92;;;;;;;14.35;100.00;101210.88;5028020;28;20199;-46
2023/07/19 04:33:52;;;;;;;6.35;2.60;;;;;;;14.28;100.00;101209.41;5021772;28;20172;-46
2023/07/19 04:36:18;;;;;;;4.22;2.15;;;;;;;14.15;100.00;101206.44;5016942;28;20227;-46
2023/07/19 04:38:46;;;;;;;3.97;2.10;;;;;;;14.30;100.00;101203.94;5021220;28;20185;-45
2023/07/19 04:41:12;;;;;;;4.68;2.10;;;;;;;14.34;100.00;101209.13;5024002;28;20592;-45
2023/07/19 04:43:37;;;;;;;4.75;2.20;;;;;;;14.41;100.00;101210.56;5025212;28;20564;-45
2023/07/19 04:46:05;;;;;;;4.60;2.20;;;;;;;14.49;100.00;101210.19;5026445;28;20200;-45
2023/07/19 04:48:31;;;;;;;2.08;1.73;;;;;;;14.52;100.00;101201.97;5022553;28;20580;-46
2023/07/19 04:50:58;;;;;;;3.20;2.15;;;;;;;14.35;100.00;101199.22;5028203;28;20207;-44
2023/07/19 04:53:25;;;;;;;4.43;2.00;;;;;;;14.45;100.00;101203.19;5024881;28;20165;-45
2023/07/19 04:55:53;;;;;;;4.15;2.38;;;;;;;14.42;100.00;101201.53;5028733;28;20243;-45
2023/07/19 04:58:21;;;;;;;2.63;2.05;;;;;;;14.38;100.00;101205.31;5021775;28;20192;-44
2023/07/19 05:00:46;;;;;;;6.93;2.47;;;;;;;14.41;100.00;101202.47;5020425;28;20184;-47
2023/07/19 05:03:12;;;;;;;3.65;2.30;;;;;;;14.39;100.00;101207.06;5016607;28;20196;-46
2023/07/19 05:05:39;;;;;;;2.20;1.95;;;;;;;14.46;100.00;101222.97;5019260;28;20210;-45
2023/07/19 05:08:06;;;;;;;3.58;2.17;;;;;;;14.35;100.00;101218.94;5027949;28;20270;-42
2023/07/19 05:10:36;;;;;;;4.68;1.95;;;;;;;14.31;100.00;101211.09;5026729;28;20200;-48
2023/07/19 05:13:04;;;;;;;4.97;2.30;;;;;;;14.31;100.00;101203.88;5036724;22;20274;-47
2023/07/19 05:15:29;;;;;;;4.20;2.03;;;;;;;14.32;100.00;101202.03;5041444;28;20200;-46
2023/07/19 05:17:55;;;;;;;4.28;2.10;;;;;;;14.35;100.00;101205.47;5008566;28;20613;-46
2023/07/19 05:20:23;;;;;;;4.90;2.45;;;;;;;14.33;100.00;101198.41;5041666;28;20579;-49
2023/07/19 05:22:49;;;;;;;3.85;2.30;;;;;;;14.29;100.00;101204.88;5041528;28;20180;-50
2023/07/19 05:25:15;;;;;;;3.47;1.92;;;;;;;14.32;100.00;101202.94;5041212;28;20196;-50
2023/07/19 05:27:41;;;;;;;4.35;2.40;;;;;;;14.32;100.00;101199.34;5009767;28;20546;-48
2023/07/19 05:30:07;;;;;;;3.83;2.15;;;;;;;14.37;100.00;101192.78;5009648;28;20323;-46
2023/07/19 05:32:32;;;;;;;5.35;2.78;;;;;;;14.40;100.00;101191.78;5009511;28;20185;-47
2023/07/19 05:34:58;;;;;;;3.72;2.33;;;;;;;14.44;100.00;101196.06;5009685;28;20191;-47
2023/07/19 05:37:24;;;;;;;5.57;3.00;;;;;;;14.30;100.00;101194.03;5009701;28;20654;-49
2023/07/19 05:39:50;;;;;;;5.25;2.10;;;;;;;14.07;100.00;101205.03;5027816;28;20705;-51
2023/07/19 05:42:16;;;;;;;5.85;2.17;;;;;;;14.12;100.00;101200.28;5028577;28;20560;-46
2023/07/19 05:44:41;;;;;;;5.00;2.05;;;;;;;14.18;100.00;101186.53;5010512;28;20251;-48
2023/07/19 05:47:07;;;;;;;5.65;2.00;;;;;;;14.18;100.00;101192.78;5008743;28;20184;-46
2023/07/19 05:49:33;;;;;;;5.45;1.95;;;;;;;14.25;100.00;101187.97;5009214;28;20288;-47
2023/07/19 05:51:59;;;;;;;4.63;2.13;;;;;;;14.31;100.00;101189.53;5009355;28;20266;-46
2023/07/19 05:54:24;;;;;;;4.43;1.65;;;;;;;14.46;100.00;101179.81;5009629;28;20275;-50
2023/07/19 05:56:50;;;;;;;5.10;2.10;;;;;;;14.35;100.00;101191.13;5009294;28;20556;-47
2023/07/19 05:59:15;;;;;;;2.67;1.75;;;;;;;14.40;100.00;101184.53;5009370;28;20246;-47
2023/07/19 06:01:41;;;;;;;3.55;2.40;;;;;;;14.32;100.00;101184.06;5009064;28;20181;-53
2023/07/19 06:04:06;;;;;;;7.00;1.90;;;;;;;14.17;100.00;101174.03;5009693;28;20224;-47
2023/07/19 06:06:33;;;;;;;5.43;2.33;;;;;;;14.27;100.00;101188.78;5009079;28;20204;-48
2023/07/19 06:09:01;;;;;;;5.82;2.38;;;;;;;14.28;100.00;101174.38;5009109;28;20179;-47
2023/07/19 06:11:27;;;;;;;4.65;2.15;;;;;;;14.42;100.00;101163.78;5009137;28;20251;-46
2023/07/19 06:13:53;;;;;;;6.63;2.20;;;;;;;14.41;100.00;101171.97;5009159;28;20184;-45
2023/07/19 06:16:18;;;;;;;3.35;1.70;;;;;;;14.50;100.00;101162.56;5009396;28;20207;-50
2023/07/19 06:18:44;;;;;;;4.95;1.77;;;;;;;14.48;100.00;101156.34;5009194;28;20635;-50
2023/07/19 06:21:09;;;;;;;3.92;2.03;;;;;;;14.56;100.00;101156.88;5009017;28;20562;-47
2023/07/19 06:23:35;;;;;;;3.85;1.73;;;;;;;14.59;100.00;101151.34;5009174;28;20188;-47
2023/07/19 06:26:00;;;;;;;4.47;1.98;;;;;;;14.61;100.00;101158.41;5009096;28;20561;-49
2023/07/19 06:28:26;;;;;;;3.25;1.67;;;;;;;14.79;100.00;101159.28;5009162;28;20172;-46
2023/07/19 06:30:51;;;;;;;1.92;1.52;;;;;;;14.61;100.00;101152.13;5008892;28;20647;-48
2023/07/19 06:33:17;;;;;;;4.60;2.10;;;;;;;14.78;100.00;101149.47;5009144;28;20168;-44
2023/07/19 06:35:43;;;;;;;3.97;1.60;;;;;;;14.83;100.00;101155.50;5008846;28;20216;-48
2023/07/19 06:38:08;;;;;;;2.75;1.73;;;;;;;14.76;100.00;101161.28;5012039;28;20176;-47
2023/07/19 06:40:34;;;;;;;5.28;1.77;;;;;;;14.69;100.00;101149.91;5012835;28;20176;-47
2023/07/19 06:42:59;;;;;;;5.13;1.58;;;;;;;14.63;100.00;101150.25;5012562;28;20184;-46
2023/07/19 06:45:25;;;;;;;3.78;1.70;;;;;;;14.70;100.00;101151.66;5012501;28;20660;-47
2023/07/19 06:47:50;;;;;;;6.32;1.45;;;;;;;14.77;100.00;101152.22;5012592;28;20272;-49
2023/07/19 06:50:17;;;;;;;2.42;1.33;;;;;;;14.87;100.00;101142.72;5012276;28;20205;-47
2023/07/19 06:52:42;;;;;;;3.25;1.42;;;;;;;14.73;100.00;101156.03;5012285;28;20164;-50
2023/07/19 06:55:08;;;;;;;5.03;1.50;;;;;;;14.75;100.00;101140.66;5012435;28;20249;-46
2023/07/19 06:57:34;;;;;;;2.95;1.40;;;;;;;14.78;100.00;101143.16;5011337;28;20183;-46
2023/07/19 07:00:00;;;;;;;4.38;1.70;;;;;;;14.81;100.00;101129.56;5011598;28;20534;-46
2023/07/19 07:02:25;;;;;;;4.15;1.80;;;;;;;14.78;100.00;101127.00;5011319;28;20406;-46
2023/07/19 07:04:51;;;;;;;3.67;1.75;;;;;;;14.88;100.00;101122.88;5010784;28;20176;-46
2023/07/19 07:07:19;;;;;;;2.58;1.92;;;;;;;14.84;100.00;101123.97;5015986;28;20669;-47
2023/07/19 07:09:45;;;;;;;4.63;2.00;;;;;;;14.91;100.00;101132.63;5008400;28;20232;-46
2023/07/19 07:12:11;;;;;;;6.03;1.77;;;;;;;14.94;100.00;101138.75;5006559;28;20169;-44
2023/07/19 07:14:39;;;;;;;5.22;2.00;;;;;;;14.86;100.00;101132.88;5010502;28;20650;-44
2023/07/19 07:17:06;;;;;;;2.60;1.70;;;;;;;14.87;100.00;101139.13;5013020;28;20247;-45
2023/07/19 07:19:31;;;;;;;3.53;1.83;;;;;;;14.84;100.00;101140.16;5012022;28;20505;-45
2023/07/19 07:21:57;;;;;;;4.50;2.03;;;;;;;14.79;100.00;101135.00;5012395;28;20180;-47
2023/07/19 07:24:23;;;;;;;2.63;1.40;;;;;;;14.84;100.00;101132.94;5009906;28;20386;-48
2023/07/19 07:26:48;;;;;;;3.45;1.88;;;;;;;14.82;100.00;101134.88;5010743;28;20220;-47
2023/07/19 07:29:14;;;;;;;2.42;1.85;;;;;;;14.93;100.00;101136.13;5011440;28;20168;-45
2023/07/19 07:31:39;;;;;;;1.60;1.50;;;;;;;15.14;100.00;101134.16;5011132;28;20291;-45
2023/07/19 07:34:05;;;;;;;2.90;1.55;;;;;;;15.18;100.00;101136.59;5012539;28;20544;-44
2023/07/19 07:36:30;;;;;;;5.13;1.60;;;;;;;15.21;100.00;101131.03;5015795;28;20208;-45
2023/07/19 07:38:55;;;;;;;2.60;1.70;;;;;;;15.06;100.00;101139.94;5014367;28;20174;-45
2023/07/19 07:41:21;;;;;;;1.65;1.52;;;;;;;15.12;100.00;101136.91;5011975;28;20271;-46
2023/07/19 07:43:46;;;;;;;4.07;1.92;;;;;;;14.82;100.00;101125.88;5011287;28;20180;-46
2023/07/19 07:46:12;;;;;;;3.22;1.45;;;;;;;14.94;100.00;101136.06;5011956;28;20197;-47
2023/07/19 07:48:37;;;;;;;4.15;1.70;;;;;;;15.02;100.00;101130.25;5010476;28;20191;-46
2023/07/19 07:51:03;;;;;;;4.13;2.08;;;;;;;15.19;100.00;101132.06;5011693;28;20207;-46
2023/07/19 07:53:29;;;;;;;3.88;1.60;;;;;;;15.40;100.00;101130.06;5010250;28;20188;-46
2023/07/19 07:55:54;;;;;;;2.35;2.10;;;;;;;15.44;100.00;101134.34;5010184;28;20682;-47
2023/07/19 07:58:20;;;;;;;2.70;1.70;;;;;;;15.33;100.00;101131.38;5012975;28;20177;-46
2023/07/19 08:00:45;;;;;;;3.03;1.90;;;;;;;15.38;100.00;101124.75;5010358;28;20181;-45
2023/07/19 08:03:11;;;;;;;2.42;1.30;;;;;;;15.49;100.00;101126.88;5010289;28;20701;-46
2023/07/19 08:05:38;;;;;;;3.47;1.70;;;;;;;15.23;100.00;101134.53;5012109;28;20197;-45
2023/07/19 08:08:05;;;;;;;1.70;1.55;;;;;;;15.29;100.00;101130.63;5014018;28;20204;-47
2023/07/19 08:10:40;;;;;;;3.38;1.55;;;;;;;15.38;100.00;101122.03;5013483;28;20251;-47
2023/07/19 08:13:07;;;;;;;2.42;1.40;;;;;;;15.43;100.00;101127.19;5013565;28;20286;-45
2023/07/19 08:15:33;;;;;;;2.45;1.70;;;;;;;15.50;100.00;101127.72;5009985;28;20216;-48
2023/07/19 08:17:58;;;;;;;2.13;1.38;;;;;;;15.44;100.00;101115.44;5008744;28;20177;-44
2023/07/19 08:20:24;;;;;;;2.33;1.30;;;;;;;15.31;100.00;101120.63;5010451;28;20181;-47
2023/07/19 08:22:51;;;;;;;2.40;1.30;;;;;;;15.32;100.00;101110.69;5011197;28;20199;-45
2023/07/19 08:25:18;;;;;;;1.98;1.50;;;;;;;15.41;100.00;101111.09;5013275;28;20663;-46
2023/07/19 08:27:44;;;;;;;3.30;1.50;;;;;;;15.40;100.00;101105.78;5011083;28;20196;-44
2023/07/19 08:30:15;;;;;;;1.40;1.17;;;;;;;15.41;100.00;101105.69;5010153;28;20704;-47
2023/07/19 08:32:48;;;;;;;1.70;1.20;;;;;;;15.56;100.00;101095.88;5012170;28;20655;-46
2023/07/19 08:35:16;;;;;;;2.47;1.33;;;;;;;15.41;100.00;101099.41;5010070;28;20192;-47
2023/07/19 08:37:44;;;;;;;1.50;1.20;;;;;;;15.48;100.00;101094.53;5009910;28;20201;-46
2023/07/19 08:40:12;;;;;;;2.67;1.30;;;;;;;15.44;100.00;101094.72;5009740;28;20655;-48
2023/07/19 08:42:38;;;;;;;1.45;1.33;;;;;;;15.42;100.00;101090.34;5009503;28;20169;-46
2023/07/19 08:45:05;;;;;;;1.45;1.10;;;;;;;15.47;100.00;101098.22;5010337;28;20605;-44
2023/07/19 08:47:32;;;;;;;2.33;1.30;;;;;;;15.41;100.00;101100.28;5004313;28;20722;-46
2023/07/19 08:49:59;;;;;;;2.20;1.60;;;;;;;15.39;100.00;101099.50;5014239;28;20215;-45
2023/07/19 08:52:27;;;;;;;1.75;1.08;;;;;;;15.34;100.00;101098.84;5007649;28;20566;-46
2023/07/19 08:54:53;;;;;;;1.10;1.00;;;;;;;15.44;100.00;101101.97;5007855;28;20173;-43
2023/07/19 08:57:18;;;;;;;1.83;1.27;;;;;;;15.33;100.00;101101.66;5006981;28;20745;-47
2023/07/19 08:59:44;;;;;;;2.15;1.17;;;;;;;15.21;100.00;101095.06;5007976;28;20564;-45
2023/07/19 09:02:10;;;;;;;1.70;1.20;;;;;;;15.13;100.00;101095.50;5007808;28;20303;-44
2023/07/19 09:04:38;;;;;;;2.92;1.30;;;;;;;15.29;100.00;101109.03;5008558;28;20544;-45
2023/07/19 09:07:04;;;;;;;2.15;1.30;;;;;;;15.20;100.00;101104.16;5007259;28;20283;-43
2023/07/19 09:09:29;;;;;;;2.97;1.20;;;;;;;14.98;100.00;101112.50;5016076;28;20270;-45
2023/07/19 09:11:55;;;;;;;1.77;1.13;;;;;;;14.97;100.00;101110.72;5011566;28;20181;-46
2023/07/19 09:14:36;;;;;;;3.50;1.50;;;;;;;14.93;100.00;101103.75;5008640;28;20227;-43
2023/07/19 09:17:02;;;;;;;3.13;1.50;;;;;;;14.99;100.00;101098.03;5008711;28;20563;-45
2023/07/19 09:19:28;;;;;;;3.92;1.50;;;;;;;15.08;100.00;101104.78;5011392;28;20198;-47
2023/07/19 09:21:56;;;;;;;2.97;1.20;;;;;;;15.28;100.00;101101.88;5011805;28;20192;-47
2023/07/19 09:24:22;;;;;;;1.92;1.52;;;;;;;15.12;100.00;101099.13;5008549;28;20231;-44
2023/07/19 09:26:50;;;;;;;2.35;1.50;;;;;;;15.02;100.00;101095.16;5008880;28;20682;-45
2023/07/19 09:29:17;;;;;;;3.67;1.58;;;;;;;14.97;100.00;101097.25;5009599;28;20204;-45
2023/07/19 09:32:02;;;;;;;4.10;1.30;;;;;;;15.21;100.00;101090.53;5008589;28;20303;-46
2023/07/19 09:34:29;;;;;;;1.50;1.40;;;;;;;15.25;100.00;101089.44;5007276;28;20188;-44
2023/07/19 09:36:55;;;;;;;2.83;1.33;;;;;;;15.30;100.00;101088.31;5008605;28;20193;-45
2023/07/19 09:39:22;;;;;;;5.35;1.70;;;;;;;15.29;100.00;101094.69;5008524;28;20192;-44
2023/07/19 09:41:47;;;;;;;1.65;1.55;;;;;;;15.51;100.00;101089.84;5009005;28;20212;-46
2023/07/19 09:44:17;;;;;;;2.97;1.60;;;;;;;15.60;100.00;101100.16;5008288;28;20223;-47
2023/07/19 09:46:44;;;;;;;3.42;1.50;;;;;;;15.70;100.00;101094.22;5008669;28;20208;-47
2023/07/19 09:49:11;;;;;;;1.98;1.80;;;;;;;15.65;100.00;101089.97;5008552;28;20658;-45
2023/07/19 09:51:42;;;;;;;2.20;1.30;;;;;;;15.43;100.00;101092.09;5007118;28;20214;-43
2023/07/19 09:54:12;;;;;;;4.88;1.65;;;;;;;15.71;100.00;101099.59;5008890;28;20557;-45
2023/07/19 09:56:39;;;;;;;3.35;1.52;;;;;;;15.78;100.00;101100.13;5035909;28;20663;-46
2023/07/19 09:59:09;;;;;;;2.20;1.50;;;;;;;15.68;100.00;101097.03;5008356;28;20230;-44
2023/07/19 10:01:35;;;;;;;2.05;1.60;;;;;;;15.27;100.00;101099.28;5010900;28;20183;-45
2023/07/19 10:04:01;;;;;;;3.00;1.70;;;;;;;15.14;100.00;101091.84;5008569;28;20176;-48
2023/07/19 10:06:30;;;;;;;3.10;1.55;;;;;;;15.19;100.00;101095.16;5009176;28;20201;-48
2023/07/19 10:09:23;;;;;;;4.63;2.10;;;;;;;15.14;100.00;101099.94;5008215;28;20267;-44
2023/07/19 10:11:52;;;;;;;3.55;2.05;;;;;;;15.15;100.00;101101.69;5007084;28;20208;-45
2023/07/19 10:14:27;;;;;;;3.22;1.80;;;;;;;15.31;100.00;101101.75;5008860;28;20211;-46
2023/07/19 10:16:57;;;;;;;2.08;1.33;;;;;;;15.13;100.00;101097.31;5011902;28;20253;-46
2023/07/19 10:19:23;;;;;;;1.80;1.48;;;;;;;15.11;100.00;101110.00;5012131;28;20188;-47
2023/07/19 10:22:07;;;;;;;2.00;1.30;;;;;;;15.17;100.00;101109.69;5012040;28;20527;-45
2023/07/19 10:24:38;;;;;;;1.92;1.27;;;;;;;15.35;100.00;101108.72;5010810;28;20191;-43
2023/07/19 10:27:06;;;;;;;1.50;1.40;;;;;;;15.62;100.00;101100.06;5013002;28;20232;-46
2023/07/19 10:29:41;;;;;;;2.22;1.42;;;;;;;15.78;100.00;101109.09;5008924;28;20188;-45
2023/07/19 10:32:08;;;;;;;2.80;1.60;;;;;;;15.83;100.00;101098.91;5012949;28;20184;-45
2023/07/19 10:34:34;;;;;;;3.28;1.58;;;;;;;15.91;100.00;101094.91;5011731;28;20693;-46
2023/07/19 10:37:02;;;;;;;1.80;1.50;;;;;;;16.12;100.00;101095.53;5012081;28;20283;-45
2023/07/19 10:39:29;;;;;;;2.38;1.52;;;;;;;15.99;100.00;101090.81;5011401;28;20180;-44
2023/07/19 10:41:54;;;;;;;2.63;1.42;;;;;;;15.86;100.00;101084.34;5013943;28;20211;-44
2023/07/19 10:44:24;;;;;;;2.50;1.90;;;;;;;15.69;100.00;101092.50;5011018;28;20223;-45
2023/07/19 10:46:49;;;;;;;3.40;1.77;;;;;;;15.83;100.00;101090.81;5009825;28;20663;-46
2023/07/19 10:49:15;;;;;;;2.50;1.63;;;;;;;15.77;100.00;101095.69;5014374;28;20189;-46
2023/07/19 10:51:54;;;;;;;2.72;1.75;;;;;;;15.70;100.00;101092.44;5017653;28;20262;-45
2023/07/19 10:54:20;;;;;;;2.28;1.60;;;;;;;15.64;100.00;101095.47;5010715;28;20176;-50
2023/07/19 10:56:48;;;;;;;2.58;1.90;;;;;;;15.28;100.00;101092.91;5009919;28;20263;-49
2023/07/19 10:59:14;;;;;;;2.50;1.90;;;;;;;15.09;100.00;101091.22;5007843;28;20189;-50
2023/07/19 11:01:40;;;;;;;3.08;1.60;;;;;;;15.47;100.00;101098.22;5010716;28;20231;-48
2023/07/19 11:04:07;;;;;;;3.90;1.90;;;;;;;15.22;100.00;101089.59;5009277;28;20183;-51
2023/07/19 11:06:33;;;;;;;2.33;1.67;;;;;;;15.50;100.00;101100.72;5008649;28;20300;-50
2023/07/19 11:09:07;;;;;;;1.80;1.30;;;;;;;15.12;100.00;101093.75;5009468;28;20191;-48
2023/07/19 11:11:38;;;;;;;2.22;1.60;;;;;;;15.50;100.00;101092.63;5008646;28;20746;-50
2023/07/19 11:14:04;;;;;;;2.63;1.50;;;;;;;15.64;100.00;101098.16;5008642;28;20196;-49
2023/07/19 11:16:30;;;;;;;1.58;1.45;;;;;;;15.48;100.00;101099.94;5009622;28;20244;-47
2023/07/19 11:18:56;;;;;;;1.98;1.40;;;;;;;15.41;100.00;101096.69;5009673;28;20181;-51